sensor_id;sensor_type;location;lat;lon;timestamp;temperature;humidity
43894;DHT22;29556;50.846;4.442;2022-08-30T00:01:01;19.30;71.70
43894;DHT22;29556;50.846;4.442;2022-08-30T00:03:36;19.30;71.80
43894;DHT22;29556;50.846;4.442;2022-08-30T00:06:04;19.30;71.80
43894;DHT22;29556;50.846;4.442;2022-08-30T00:08:31;19.30;72.10
43894;DHT22;29556;50.846;4.442;2022-08-30T00:10:58;19.30;72.10
43894;DHT22;29556;50.846;4.442;2022-08-30T00:13:24;19.30;72.10
43894;DHT22;29556;50.846;4.442;2022-08-30T00:15:51;19.30;72.10
43894;DHT22;29556;50.846;4.442;2022-08-30T00:18:19;19.30;72.30
43894;DHT22;29556;50.846;4.442;2022-08-30T00:20:49;19.30;72.60
43894;DHT22;29556;50.846;4.442;2022-08-30T00:23:18;19.30;72.40
43894;DHT22;29556;50.846;4.442;2022-08-30T00:25:44;19.30;72.60
43894;DHT22;29556;50.846;4.442;2022-08-30T00:28:12;19.30;72.90
43894;DHT22;29556;50.846;4.442;2022-08-30T00:30:39;19.30;72.90
43894;DHT22;29556;50.846;4.442;2022-08-30T00:33:07;19.30;73.00
43894;DHT22;29556;50.846;4.442;2022-08-30T00:35:32;19.30;73.10
43894;DHT22;29556;50.846;4.442;2022-08-30T00:37:58;19.30;73.70
43894;DHT22;29556;50.846;4.442;2022-08-30T00:40:27;19.30;73.20
43894;DHT22;29556;50.846;4.442;2022-08-30T00:42:58;19.30;74.50
43894;DHT22;29556;50.846;4.442;2022-08-30T00:45:30;19.30;73.90
43894;DHT22;29556;50.846;4.442;2022-08-30T00:47:58;19.30;73.80
43894;DHT22;29556;50.846;4.442;2022-08-30T00:50:28;19.30;73.90
43894;DHT22;29556;50.846;4.442;2022-08-30T00:52:59;19.30;74.10
43894;DHT22;29556;50.846;4.442;2022-08-30T00:55:31;19.30;74.10
43894;DHT22;29556;50.846;4.442;2022-08-30T00:58:01;19.40;73.80
43894;DHT22;29556;50.846;4.442;2022-08-30T01:00:28;19.40;73.80
43894;DHT22;29556;50.846;4.442;2022-08-30T01:03:01;19.40;73.80
43894;DHT22;29556;50.846;4.442;2022-08-30T01:05:26;19.50;74.00
43894;DHT22;29556;50.846;4.442;2022-08-30T01:07:56;19.50;73.80
43894;DHT22;29556;50.846;4.442;2022-08-30T01:10:26;19.50;73.60
43894;DHT22;29556;50.846;4.442;2022-08-30T01:12:54;19.60;74.10
43894;DHT22;29556;50.846;4.442;2022-08-30T01:15:21;19.50;73.80
43894;DHT22;29556;50.846;4.442;2022-08-30T01:17:47;19.50;73.80
43894;DHT22;29556;50.846;4.442;2022-08-30T01:20:19;19.50;73.70
43894;DHT22;29556;50.846;4.442;2022-08-30T01:25:29;19.50;74.30
43894;DHT22;29556;50.846;4.442;2022-08-30T01:28:07;19.50;74.10
43894;DHT22;29556;50.846;4.442;2022-08-30T01:30:38;19.50;74.70
43894;DHT22;29556;50.846;4.442;2022-08-30T01:33:16;19.40;74.10
43894;DHT22;29556;50.846;4.442;2022-08-30T01:36:05;19.40;74.30
43894;DHT22;29556;50.846;4.442;2022-08-30T01:38:53;19.50;74.00
43894;DHT22;29556;50.846;4.442;2022-08-30T01:41:23;19.40;74.10
43894;DHT22;29556;50.846;4.442;2022-08-30T01:43:52;19.50;74.20
43894;DHT22;29556;50.846;4.442;2022-08-30T01:46:23;19.50;74.00
43894;DHT22;29556;50.846;4.442;2022-08-30T01:48:54;19.50;73.90
43894;DHT22;29556;50.846;4.442;2022-08-30T01:51:24;19.50;74.00
43894;DHT22;29556;50.846;4.442;2022-08-30T01:54:04;19.50;74.00
43894;DHT22;29556;50.846;4.442;2022-08-30T01:56:51;19.50;74.20
43894;DHT22;29556;50.846;4.442;2022-08-30T01:59:20;19.30;74.10
43894;DHT22;29556;50.846;4.442;2022-08-30T02:01:46;19.30;74.50
43894;DHT22;29556;50.846;4.442;2022-08-30T02:04:12;19.30;74.70
43894;DHT22;29556;50.846;4.442;2022-08-30T02:06:48;19.30;74.70
43894;DHT22;29556;50.846;4.442;2022-08-30T02:09:14;19.30;74.40
43894;DHT22;29556;50.846;4.442;2022-08-30T02:11:44;19.20;74.40
43894;DHT22;29556;50.846;4.442;2022-08-30T02:14:13;19.20;74.70
43894;DHT22;29556;50.846;4.442;2022-08-30T02:16:40;19.30;74.90
43894;DHT22;29556;50.846;4.442;2022-08-30T02:19:08;19.00;74.90
43894;DHT22;29556;50.846;4.442;2022-08-30T02:21:36;19.00;75.20
43894;DHT22;29556;50.846;4.442;2022-08-30T02:24:05;19.00;75.20
43894;DHT22;29556;50.846;4.442;2022-08-30T02:26:38;18.90;75.10
43894;DHT22;29556;50.846;4.442;2022-08-30T02:29:07;18.90;75.30
43894;DHT22;29556;50.846;4.442;2022-08-30T02:31:34;18.80;75.20
43894;DHT22;29556;50.846;4.442;2022-08-30T02:34:03;18.90;75.70
43894;DHT22;29556;50.846;4.442;2022-08-30T02:36:29;18.80;75.60
43894;DHT22;29556;50.846;4.442;2022-08-30T02:38:58;18.70;75.80
43894;DHT22;29556;50.846;4.442;2022-08-30T02:41:32;18.70;76.10
43894;DHT22;29556;50.846;4.442;2022-08-30T02:43:58;18.70;76.10
43894;DHT22;29556;50.846;4.442;2022-08-30T02:46:32;18.60;76.00
43894;DHT22;29556;50.846;4.442;2022-08-30T02:49:06;18.60;76.00
43894;DHT22;29556;50.846;4.442;2022-08-30T02:51:36;18.60;76.10
43894;DHT22;29556;50.846;4.442;2022-08-30T02:54:04;18.60;76.40
43894;DHT22;29556;50.846;4.442;2022-08-30T02:56:30;18.60;76.30
43894;DHT22;29556;50.846;4.442;2022-08-30T02:58:55;18.60;76.40
43894;DHT22;29556;50.846;4.442;2022-08-30T03:01:23;18.50;76.40
43894;DHT22;29556;50.846;4.442;2022-08-30T03:03:49;18.50;76.60
43894;DHT22;29556;50.846;4.442;2022-08-30T03:06:16;18.50;76.80
43894;DHT22;29556;50.846;4.442;2022-08-30T03:08:42;18.50;76.90
43894;DHT22;29556;50.846;4.442;2022-08-30T03:11:08;18.40;77.00
43894;DHT22;29556;50.846;4.442;2022-08-30T03:13:34;18.50;77.30
43894;DHT22;29556;50.846;4.442;2022-08-30T03:16:00;18.40;77.10
43894;DHT22;29556;50.846;4.442;2022-08-30T03:18:26;18.40;77.30
43894;DHT22;29556;50.846;4.442;2022-08-30T03:20:53;18.40;77.40
43894;DHT22;29556;50.846;4.442;2022-08-30T03:23:18;18.40;77.50
43894;DHT22;29556;50.846;4.442;2022-08-30T03:25:45;18.40;77.80
43894;DHT22;29556;50.846;4.442;2022-08-30T03:28:11;18.40;77.90
43894;DHT22;29556;50.846;4.442;2022-08-30T03:30:37;18.40;78.10
43894;DHT22;29556;50.846;4.442;2022-08-30T03:33:03;18.30;78.10
43894;DHT22;29556;50.846;4.442;2022-08-30T03:35:29;18.40;78.20
43894;DHT22;29556;50.846;4.442;2022-08-30T03:37:56;18.30;78.30
43894;DHT22;29556;50.846;4.442;2022-08-30T03:40:23;18.40;78.20
43894;DHT22;29556;50.846;4.442;2022-08-30T03:42:48;18.40;78.40
43894;DHT22;29556;50.846;4.442;2022-08-30T03:45:17;18.50;78.30
43894;DHT22;29556;50.846;4.442;2022-08-30T03:47:43;18.50;78.20
43894;DHT22;29556;50.846;4.442;2022-08-30T03:50:11;18.60;78.10
43894;DHT22;29556;50.846;4.442;2022-08-30T03:52:37;18.60;77.90
43894;DHT22;29556;50.846;4.442;2022-08-30T03:55:04;18.60;77.90
43894;DHT22;29556;50.846;4.442;2022-08-30T03:57:29;18.60;77.80
43894;DHT22;29556;50.846;4.442;2022-08-30T03:59:55;18.70;77.80
43894;DHT22;29556;50.846;4.442;2022-08-30T04:02:21;18.70;77.60
43894;DHT22;29556;50.846;4.442;2022-08-30T04:04:46;18.70;77.50
43894;DHT22;29556;50.846;4.442;2022-08-30T04:07:15;18.60;77.50
43894;DHT22;29556;50.846;4.442;2022-08-30T04:09:41;18.60;77.30
43894;DHT22;29556;50.846;4.442;2022-08-30T04:12:06;18.50;77.60
43894;DHT22;29556;50.846;4.442;2022-08-30T04:14:32;18.50;77.80
43894;DHT22;29556;50.846;4.442;2022-08-30T04:16:58;18.50;77.70
43894;DHT22;29556;50.846;4.442;2022-08-30T04:19:24;18.50;77.70
43894;DHT22;29556;50.846;4.442;2022-08-30T04:21:50;18.50;77.60
43894;DHT22;29556;50.846;4.442;2022-08-30T04:24:15;18.50;77.60
43894;DHT22;29556;50.846;4.442;2022-08-30T04:26:41;18.40;77.90
43894;DHT22;29556;50.846;4.442;2022-08-30T04:29:08;18.30;77.80
43894;DHT22;29556;50.846;4.442;2022-08-30T04:31:36;18.30;77.90
43894;DHT22;29556;50.846;4.442;2022-08-30T04:34:01;18.40;78.20
43894;DHT22;29556;50.846;4.442;2022-08-30T04:36:27;18.30;78.00
43894;DHT22;29556;50.846;4.442;2022-08-30T04:38:53;18.30;78.00
43894;DHT22;29556;50.846;4.442;2022-08-30T04:41:20;18.30;78.20
43894;DHT22;29556;50.846;4.442;2022-08-30T04:43:48;18.40;78.30
43894;DHT22;29556;50.846;4.442;2022-08-30T04:46:16;18.30;78.30
43894;DHT22;29556;50.846;4.442;2022-08-30T04:48:42;18.30;78.30
43894;DHT22;29556;50.846;4.442;2022-08-30T04:51:10;18.30;78.30
43894;DHT22;29556;50.846;4.442;2022-08-30T04:53:40;18.20;78.50
43894;DHT22;29556;50.846;4.442;2022-08-30T04:56:12;18.20;78.40
43894;DHT22;29556;50.846;4.442;2022-08-30T04:58:46;18.30;78.30
43894;DHT22;29556;50.846;4.442;2022-08-30T05:01:18;18.20;78.40
43894;DHT22;29556;50.846;4.442;2022-08-30T05:03:47;18.10;78.40
43894;DHT22;29556;50.846;4.442;2022-08-30T05:06:16;18.20;78.70
43894;DHT22;29556;50.846;4.442;2022-08-30T05:08:42;18.20;78.70
43894;DHT22;29556;50.846;4.442;2022-08-30T05:11:08;18.10;78.80
43894;DHT22;29556;50.846;4.442;2022-08-30T05:13:35;18.10;78.80
43894;DHT22;29556;50.846;4.442;2022-08-30T05:16:02;18.10;78.80
43894;DHT22;29556;50.846;4.442;2022-08-30T05:18:28;18.10;78.90
43894;DHT22;29556;50.846;4.442;2022-08-30T05:21:18;18.10;79.30
43894;DHT22;29556;50.846;4.442;2022-08-30T05:23:44;18.10;78.90
43894;DHT22;29556;50.846;4.442;2022-08-30T05:26:13;18.10;79.00
43894;DHT22;29556;50.846;4.442;2022-08-30T05:28:40;18.10;79.10
43894;DHT22;29556;50.846;4.442;2022-08-30T05:33:42;18.20;79.40
43894;DHT22;29556;50.846;4.442;2022-08-30T05:36:09;18.20;79.20
43894;DHT22;29556;50.846;4.442;2022-08-30T05:38:35;18.20;79.30
43894;DHT22;29556;50.846;4.442;2022-08-30T05:41:02;18.20;79.40
43894;DHT22;29556;50.846;4.442;2022-08-30T05:43:28;18.20;79.20
43894;DHT22;29556;50.846;4.442;2022-08-30T05:46:09;18.10;79.40
43894;DHT22;29556;50.846;4.442;2022-08-30T05:48:37;18.20;79.30
43894;DHT22;29556;50.846;4.442;2022-08-30T05:51:14;18.20;79.30
43894;DHT22;29556;50.846;4.442;2022-08-30T05:53:42;18.30;79.40
43894;DHT22;29556;50.846;4.442;2022-08-30T05:56:12;18.40;79.50
43894;DHT22;29556;50.846;4.442;2022-08-30T05:58:39;18.40;79.30
43894;DHT22;29556;50.846;4.442;2022-08-30T06:01:40;18.40;79.20
43894;DHT22;29556;50.846;4.442;2022-08-30T06:04:05;18.50;79.20
43894;DHT22;29556;50.846;4.442;2022-08-30T06:06:34;18.60;79.00
43894;DHT22;29556;50.846;4.442;2022-08-30T06:09:00;18.60;79.00
43894;DHT22;29556;50.846;4.442;2022-08-30T06:11:27;18.60;78.70
43894;DHT22;29556;50.846;4.442;2022-08-30T06:13:53;18.70;78.60
43894;DHT22;29556;50.846;4.442;2022-08-30T06:16:22;18.80;78.50
43894;DHT22;29556;50.846;4.442;2022-08-30T06:18:48;18.90;77.90
43894;DHT22;29556;50.846;4.442;2022-08-30T06:21:21;18.90;78.10
43894;DHT22;29556;50.846;4.442;2022-08-30T06:23:48;18.90;78.50
43894;DHT22;29556;50.846;4.442;2022-08-30T06:26:17;18.90;77.90
43894;DHT22;29556;50.846;4.442;2022-08-30T06:28:43;19.00;77.90
43894;DHT22;29556;50.846;4.442;2022-08-30T06:31:12;19.00;77.50
43894;DHT22;29556;50.846;4.442;2022-08-30T06:33:39;18.90;77.30
43894;DHT22;29556;50.846;4.442;2022-08-30T06:36:10;19.00;77.30
43894;DHT22;29556;50.846;4.442;2022-08-30T06:38:37;19.20;77.20
43894;DHT22;29556;50.846;4.442;2022-08-30T06:41:14;19.30;76.40
43894;DHT22;29556;50.846;4.442;2022-08-30T06:43:40;19.30;76.50
43894;DHT22;29556;50.846;4.442;2022-08-30T06:46:09;19.40;76.70
43894;DHT22;29556;50.846;4.442;2022-08-30T06:48:36;19.40;76.20
43894;DHT22;29556;50.846;4.442;2022-08-30T06:51:02;19.50;76.40
43894;DHT22;29556;50.846;4.442;2022-08-30T06:53:29;19.60;76.40
43894;DHT22;29556;50.846;4.442;2022-08-30T06:56:01;19.70;76.10
43894;DHT22;29556;50.846;4.442;2022-08-30T06:58:28;19.80;75.60
43894;DHT22;29556;50.846;4.442;2022-08-30T07:00:54;19.80;75.60
43894;DHT22;29556;50.846;4.442;2022-08-30T07:03:23;19.90;75.30
43894;DHT22;29556;50.846;4.442;2022-08-30T07:05:55;20.00;75.40
43894;DHT22;29556;50.846;4.442;2022-08-30T07:08:22;20.00;75.20
43894;DHT22;29556;50.846;4.442;2022-08-30T07:10:51;20.10;74.80
43894;DHT22;29556;50.846;4.442;2022-08-30T07:13:19;20.30;75.20
43894;DHT22;29556;50.846;4.442;2022-08-30T07:15:46;20.30;74.70
43894;DHT22;29556;50.846;4.442;2022-08-30T07:18:13;20.40;74.50
43894;DHT22;29556;50.846;4.442;2022-08-30T07:21:05;20.50;73.70
43894;DHT22;29556;50.846;4.442;2022-08-30T07:23:32;20.60;73.40
43894;DHT22;29556;50.846;4.442;2022-08-30T07:26:03;20.70;73.40
43894;DHT22;29556;50.846;4.442;2022-08-30T07:28:29;20.80;73.30
43894;DHT22;29556;50.846;4.442;2022-08-30T07:30:55;20.80;72.50
43894;DHT22;29556;50.846;4.442;2022-08-30T07:33:21;20.80;71.40
43894;DHT22;29556;50.846;4.442;2022-08-30T07:35:47;20.90;72.20
43894;DHT22;29556;50.846;4.442;2022-08-30T07:38:13;20.90;72.60
43894;DHT22;29556;50.846;4.442;2022-08-30T07:40:39;21.00;72.00
43894;DHT22;29556;50.846;4.442;2022-08-30T07:43:05;21.10;71.30
43894;DHT22;29556;50.846;4.442;2022-08-30T07:45:31;21.20;71.70
43894;DHT22;29556;50.846;4.442;2022-08-30T07:47:57;21.20;71.70
43894;DHT22;29556;50.846;4.442;2022-08-30T07:50:23;21.20;71.10
43894;DHT22;29556;50.846;4.442;2022-08-30T07:52:49;21.20;70.70
43894;DHT22;29556;50.846;4.442;2022-08-30T07:55:15;21.30;70.80
43894;DHT22;29556;50.846;4.442;2022-08-30T07:57:43;21.30;70.20
43894;DHT22;29556;50.846;4.442;2022-08-30T08:00:09;21.30;70.00
43894;DHT22;29556;50.846;4.442;2022-08-30T08:02:35;21.30;69.60
43894;DHT22;29556;50.846;4.442;2022-08-30T08:05:02;21.40;69.90
43894;DHT22;29556;50.846;4.442;2022-08-30T08:07:30;21.40;69.40
43894;DHT22;29556;50.846;4.442;2022-08-30T08:09:56;21.50;69.60
43894;DHT22;29556;50.846;4.442;2022-08-30T08:12:21;21.50;69.10
43894;DHT22;29556;50.846;4.442;2022-08-30T08:14:47;21.50;67.90
43894;DHT22;29556;50.846;4.442;2022-08-30T08:17:13;21.50;68.10
43894;DHT22;29556;50.846;4.442;2022-08-30T08:19:41;21.50;67.80
43894;DHT22;29556;50.846;4.442;2022-08-30T08:22:07;21.50;67.30
43894;DHT22;29556;50.846;4.442;2022-08-30T08:24:33;21.50;66.70
43894;DHT22;29556;50.846;4.442;2022-08-30T08:26:59;21.50;66.70
43894;DHT22;29556;50.846;4.442;2022-08-30T08:29:24;21.60;67.30
43894;DHT22;29556;50.846;4.442;2022-08-30T08:31:52;21.60;67.60
43894;DHT22;29556;50.846;4.442;2022-08-30T08:34:18;21.60;67.60
43894;DHT22;29556;50.846;4.442;2022-08-30T08:36:49;21.70;67.10
43894;DHT22;29556;50.846;4.442;2022-08-30T08:39:16;21.70;67.60
43894;DHT22;29556;50.846;4.442;2022-08-30T08:44:55;21.90;67.20
43894;DHT22;29556;50.846;4.442;2022-08-30T08:50:01;21.90;67.10
43894;DHT22;29556;50.846;4.442;2022-08-30T08:55:27;22.00;66.00
43894;DHT22;29556;50.846;4.442;2022-08-30T08:57:55;22.00;66.30
43894;DHT22;29556;50.846;4.442;2022-08-30T09:00:21;22.00;66.30
43894;DHT22;29556;50.846;4.442;2022-08-30T09:02:56;22.10;66.20
43894;DHT22;29556;50.846;4.442;2022-08-30T09:05:26;22.10;65.60
43894;DHT22;29556;50.846;4.442;2022-08-30T09:08:03;22.10;65.00
43894;DHT22;29556;50.846;4.442;2022-08-30T09:10:31;22.10;64.90
43894;DHT22;29556;50.846;4.442;2022-08-30T09:12:58;22.10;64.50
43894;DHT22;29556;50.846;4.442;2022-08-30T09:15:27;22.20;64.80
43894;DHT22;29556;50.846;4.442;2022-08-30T09:17:58;22.10;64.30
43894;DHT22;29556;50.846;4.442;2022-08-30T09:22:58;22.20;64.20
43894;DHT22;29556;50.846;4.442;2022-08-30T09:25:28;22.20;64.60
43894;DHT22;29556;50.846;4.442;2022-08-30T09:28:07;22.30;64.70
43894;DHT22;29556;50.846;4.442;2022-08-30T09:30:37;22.30;64.50
43894;DHT22;29556;50.846;4.442;2022-08-30T09:33:18;22.40;63.70
43894;DHT22;29556;50.846;4.442;2022-08-30T09:35:48;22.50;63.50
43894;DHT22;29556;50.846;4.442;2022-08-30T09:38:21;22.60;63.80
43894;DHT22;29556;50.846;4.442;2022-08-30T09:40:57;22.80;63.20
43894;DHT22;29556;50.846;4.442;2022-08-30T09:43:31;22.80;63.10
43894;DHT22;29556;50.846;4.442;2022-08-30T09:48:30;22.90;62.50
43894;DHT22;29556;50.846;4.442;2022-08-30T09:56:58;23.10;61.90
43894;DHT22;29556;50.846;4.442;2022-08-30T10:08:49;23.50;60.70
43894;DHT22;29556;50.846;4.442;2022-08-30T10:22:03;24.20;58.30
43894;DHT22;29556;50.846;4.442;2022-08-30T10:24:38;24.30;57.50
43894;DHT22;29556;50.846;4.442;2022-08-30T10:27:16;24.40;57.50
43894;DHT22;29556;50.846;4.442;2022-08-30T10:45:56;24.80;57.50
43894;DHT22;29556;50.846;4.442;2022-08-30T10:48:44;24.80;58.30
43894;DHT22;29556;50.846;4.442;2022-08-30T10:51:24;24.90;57.10
43894;DHT22;29556;50.846;4.442;2022-08-30T10:54:20;24.90;56.30
43894;DHT22;29556;50.846;4.442;2022-08-30T10:56:50;24.90;57.00
43894;DHT22;29556;50.846;4.442;2022-08-30T10:59:22;25.00;56.00
43894;DHT22;29556;50.846;4.442;2022-08-30T11:14:31;25.30;56.10
43894;DHT22;29556;50.846;4.442;2022-08-30T11:16:59;25.40;54.80
43894;DHT22;29556;50.846;4.442;2022-08-30T11:19:35;25.40;54.80
43894;DHT22;29556;50.846;4.442;2022-08-30T11:22:20;25.40;54.90
43894;DHT22;29556;50.846;4.442;2022-08-30T11:25:14;25.40;54.10
43894;DHT22;29556;50.846;4.442;2022-08-30T11:35:54;25.30;54.90
43894;DHT22;29556;50.846;4.442;2022-08-30T11:41:06;25.40;53.90
43894;DHT22;29556;50.846;4.442;2022-08-30T11:49:05;25.50;58.50
43894;DHT22;29556;50.846;4.442;2022-08-30T11:52:09;25.70;57.70
43894;DHT22;29556;50.846;4.442;2022-08-30T11:54:42;25.80;56.70
43894;DHT22;29556;50.846;4.442;2022-08-30T12:00:26;26.30;52.90
43894;DHT22;29556;50.846;4.442;2022-08-30T12:03:07;26.40;52.30
43894;DHT22;29556;50.846;4.442;2022-08-30T12:06:02;26.30;53.50
43894;DHT22;29556;50.846;4.442;2022-08-30T12:16:21;26.40;53.60
43894;DHT22;29556;50.846;4.442;2022-08-30T12:19:09;26.60;51.00
43894;DHT22;29556;50.846;4.442;2022-08-30T12:21:36;26.70;52.00
43894;DHT22;29556;50.846;4.442;2022-08-30T12:26:55;26.90;53.10
43894;DHT22;29556;50.846;4.442;2022-08-30T12:29:30;27.00;52.10
43894;DHT22;29556;50.846;4.442;2022-08-30T12:32:05;26.90;52.20
43894;DHT22;29556;50.846;4.442;2022-08-30T12:37:28;26.80;51.90
43894;DHT22;29556;50.846;4.442;2022-08-30T12:40:14;26.80;51.90
43894;DHT22;29556;50.846;4.442;2022-08-30T12:42:51;26.60;51.10
43894;DHT22;29556;50.846;4.442;2022-08-30T12:45:19;26.40;50.50
43894;DHT22;29556;50.846;4.442;2022-08-30T12:47:59;26.40;50.70
43894;DHT22;29556;50.846;4.442;2022-08-30T12:50:29;26.40;51.30
43894;DHT22;29556;50.846;4.442;2022-08-30T12:52:59;26.40;50.70
43894;DHT22;29556;50.846;4.442;2022-08-30T12:55:31;26.20;50.80
43894;DHT22;29556;50.846;4.442;2022-08-30T12:58:07;26.10;51.90
43894;DHT22;29556;50.846;4.442;2022-08-30T13:03:35;25.80;53.00
43894;DHT22;29556;50.846;4.442;2022-08-30T13:06:02;25.80;54.30
43894;DHT22;29556;50.846;4.442;2022-08-30T13:11:22;25.90;54.30
43894;DHT22;29556;50.846;4.442;2022-08-30T13:17:03;26.30;52.00
43894;DHT22;29556;50.846;4.442;2022-08-30T13:19:41;26.30;51.80
43894;DHT22;29556;50.846;4.442;2022-08-30T13:22:27;26.30;52.10
43894;DHT22;29556;50.846;4.442;2022-08-30T13:24:58;26.30;51.80
43894;DHT22;29556;50.846;4.442;2022-08-30T13:27:26;26.20;51.30
43894;DHT22;29556;50.846;4.442;2022-08-30T13:29:55;26.20;51.20
43894;DHT22;29556;50.846;4.442;2022-08-30T13:32:22;26.10;50.80
43894;DHT22;29556;50.846;4.442;2022-08-30T13:34:49;26.10;51.40
43894;DHT22;29556;50.846;4.442;2022-08-30T13:37:22;26.00;51.30
43894;DHT22;29556;50.846;4.442;2022-08-30T13:39:49;25.90;51.20
43894;DHT22;29556;50.846;4.442;2022-08-30T13:42:15;25.90;51.70
43894;DHT22;29556;50.846;4.442;2022-08-30T13:44:40;25.90;51.90
43894;DHT22;29556;50.846;4.442;2022-08-30T13:47:20;26.00;53.00
43894;DHT22;29556;50.846;4.442;2022-08-30T13:49:50;26.10;52.50
43894;DHT22;29556;50.846;4.442;2022-08-30T13:52:31;26.30;53.10
43894;DHT22;29556;50.846;4.442;2022-08-30T13:54:57;26.30;51.40
43894;DHT22;29556;50.846;4.442;2022-08-30T13:57:26;26.30;52.00
43894;DHT22;29556;50.846;4.442;2022-08-30T13:59:55;26.30;51.80
43894;DHT22;29556;50.846;4.442;2022-08-30T14:02:22;26.40;51.00
43894;DHT22;29556;50.846;4.442;2022-08-30T14:07:32;26.30;51.90
43894;DHT22;29556;50.846;4.442;2022-08-30T14:12:35;26.60;50.30
43894;DHT22;29556;50.846;4.442;2022-08-30T14:15:01;26.90;51.50
43894;DHT22;29556;50.846;4.442;2022-08-30T14:17:33;27.00;50.90
43894;DHT22;29556;50.846;4.442;2022-08-30T14:20:26;27.10;51.10
43894;DHT22;29556;50.846;4.442;2022-08-30T14:23:00;27.20;50.70
43894;DHT22;29556;50.846;4.442;2022-08-30T14:25:38;27.30;50.80
43894;DHT22;29556;50.846;4.442;2022-08-30T14:28:37;27.30;50.20
43894;DHT22;29556;50.846;4.442;2022-08-30T14:31:05;27.20;49.70
43894;DHT22;29556;50.846;4.442;2022-08-30T14:33:32;27.10;49.70
43894;DHT22;29556;50.846;4.442;2022-08-30T14:36:06;27.00;50.20
43894;DHT22;29556;50.846;4.442;2022-08-30T14:38:37;27.00;49.30
43894;DHT22;29556;50.846;4.442;2022-08-30T14:46:25;26.80;50.10
43894;DHT22;29556;50.846;4.442;2022-08-30T14:49:02;26.80;50.90
43894;DHT22;29556;50.846;4.442;2022-08-30T14:51:31;26.80;50.50
43894;DHT22;29556;50.846;4.442;2022-08-30T14:54:06;26.70;50.20
43894;DHT22;29556;50.846;4.442;2022-08-30T14:56:35;26.50;49.80
43894;DHT22;29556;50.846;4.442;2022-08-30T14:59:02;26.60;50.50
43894;DHT22;29556;50.846;4.442;2022-08-30T15:01:33;26.60;51.10
43894;DHT22;29556;50.846;4.442;2022-08-30T15:03:59;26.60;51.10
43894;DHT22;29556;50.846;4.442;2022-08-30T15:06:26;26.60;51.20
43894;DHT22;29556;50.846;4.442;2022-08-30T15:08:54;26.60;50.80
43894;DHT22;29556;50.846;4.442;2022-08-30T15:11:22;26.60;49.90
43894;DHT22;29556;50.846;4.442;2022-08-30T15:13:53;26.60;50.30
43894;DHT22;29556;50.846;4.442;2022-08-30T15:16:37;26.60;50.20
43894;DHT22;29556;50.846;4.442;2022-08-30T15:19:11;26.50;50.00
43894;DHT22;29556;50.846;4.442;2022-08-30T15:21:45;26.60;50.70
43894;DHT22;29556;50.846;4.442;2022-08-30T15:24:21;26.50;50.60
43894;DHT22;29556;50.846;4.442;2022-08-30T15:26:46;26.50;50.20
43894;DHT22;29556;50.846;4.442;2022-08-30T15:29:15;26.60;49.90
43894;DHT22;29556;50.846;4.442;2022-08-30T15:31:41;26.60;49.70
43894;DHT22;29556;50.846;4.442;2022-08-30T15:34:32;26.60;49.10
43894;DHT22;29556;50.846;4.442;2022-08-30T15:36:59;26.50;49.70
43894;DHT22;29556;50.846;4.442;2022-08-30T15:39:30;26.50;49.50
43894;DHT22;29556;50.846;4.442;2022-08-30T15:42:03;26.30;49.20
43894;DHT22;29556;50.846;4.442;2022-08-30T15:44:33;26.50;49.60
43894;DHT22;29556;50.846;4.442;2022-08-30T15:46:58;26.50;49.90
43894;DHT22;29556;50.846;4.442;2022-08-30T15:49:30;26.60;49.90
43894;DHT22;29556;50.846;4.442;2022-08-30T15:54:24;26.70;49.90
43894;DHT22;29556;50.846;4.442;2022-08-30T15:56:50;26.70;49.30
43894;DHT22;29556;50.846;4.442;2022-08-30T15:59:28;26.70;49.00
43894;DHT22;29556;50.846;4.442;2022-08-30T16:01:54;26.70;48.70
43894;DHT22;29556;50.846;4.442;2022-08-30T16:04:20;26.70;48.70
43894;DHT22;29556;50.846;4.442;2022-08-30T16:06:47;26.60;48.90
43894;DHT22;29556;50.846;4.442;2022-08-30T16:09:17;26.70;49.00
43894;DHT22;29556;50.846;4.442;2022-08-30T16:11:44;26.80;48.90
43894;DHT22;29556;50.846;4.442;2022-08-30T16:14:14;26.80;49.20
43894;DHT22;29556;50.846;4.442;2022-08-30T16:16:45;26.70;48.20
43894;DHT22;29556;50.846;4.442;2022-08-30T16:19:16;26.60;48.70
43894;DHT22;29556;50.846;4.442;2022-08-30T16:21:45;26.70;48.80
43894;DHT22;29556;50.846;4.442;2022-08-30T16:24:21;26.60;48.40
43894;DHT22;29556;50.846;4.442;2022-08-30T16:26:49;26.60;49.20
43894;DHT22;29556;50.846;4.442;2022-08-30T16:29:16;26.50;49.60
43894;DHT22;29556;50.846;4.442;2022-08-30T16:31:44;26.50;49.40
43894;DHT22;29556;50.846;4.442;2022-08-30T16:34:14;26.30;50.00
43894;DHT22;29556;50.846;4.442;2022-08-30T16:36:40;26.20;49.40
43894;DHT22;29556;50.846;4.442;2022-08-30T16:39:07;26.20;50.20
43894;DHT22;29556;50.846;4.442;2022-08-30T16:41:34;26.10;50.10
43894;DHT22;29556;50.846;4.442;2022-08-30T16:44:00;26.00;50.40
43894;DHT22;29556;50.846;4.442;2022-08-30T16:46:26;25.80;49.80
43894;DHT22;29556;50.846;4.442;2022-08-30T16:48:51;25.90;50.40
43894;DHT22;29556;50.846;4.442;2022-08-30T16:51:20;25.90;50.50
43894;DHT22;29556;50.846;4.442;2022-08-30T16:53:49;26.00;50.30
43894;DHT22;29556;50.846;4.442;2022-08-30T16:56:18;25.90;50.80
43894;DHT22;29556;50.846;4.442;2022-08-30T16:58:45;25.80;49.70
43894;DHT22;29556;50.846;4.442;2022-08-30T17:01:11;25.70;50.70
43894;DHT22;29556;50.846;4.442;2022-08-30T17:03:41;25.70;51.20
43894;DHT22;29556;50.846;4.442;2022-08-30T17:06:13;25.70;51.60
43894;DHT22;29556;50.846;4.442;2022-08-30T17:08:48;25.60;50.70
43894;DHT22;29556;50.846;4.442;2022-08-30T17:11:50;25.60;51.50
43894;DHT22;29556;50.846;4.442;2022-08-30T17:14:25;25.50;50.40
43894;DHT22;29556;50.846;4.442;2022-08-30T17:16:51;25.60;51.40
43894;DHT22;29556;50.846;4.442;2022-08-30T17:19:18;25.40;51.30
43894;DHT22;29556;50.846;4.442;2022-08-30T17:21:44;25.40;49.80
43894;DHT22;29556;50.846;4.442;2022-08-30T17:24:32;25.30;50.40
43894;DHT22;29556;50.846;4.442;2022-08-30T17:27:05;25.30;50.80
43894;DHT22;29556;50.846;4.442;2022-08-30T17:29:32;25.10;51.30
43894;DHT22;29556;50.846;4.442;2022-08-30T17:32:00;25.20;52.20
43894;DHT22;29556;50.846;4.442;2022-08-30T17:34:34;25.20;51.70
43894;DHT22;29556;50.846;4.442;2022-08-30T17:37:10;25.10;52.20
43894;DHT22;29556;50.846;4.442;2022-08-30T17:39:46;25.10;52.00
43894;DHT22;29556;50.846;4.442;2022-08-30T17:42:14;25.00;51.50
43894;DHT22;29556;50.846;4.442;2022-08-30T17:44:41;25.00;51.70
43894;DHT22;29556;50.846;4.442;2022-08-30T17:47:08;24.90;51.80
43894;DHT22;29556;50.846;4.442;2022-08-30T17:49:37;24.90;51.80
43894;DHT22;29556;50.846;4.442;2022-08-30T17:52:09;24.90;52.60
43894;DHT22;29556;50.846;4.442;2022-08-30T17:54:35;24.80;52.30
43894;DHT22;29556;50.846;4.442;2022-08-30T17:57:02;24.80;52.10